Asterion — FICK — position and weather

sailwx.info

Track history (hours):
 
Tides and Currents Weather Stations Pressure Air Temp Water Temp Dewpoint Dewpoint Depression Visibility Wind Speed Wind Dir Waves Ship Positions

Asterion

Last reported at 2018-Feb-23 09:46 UTC. Time now 2018-Feb-24 16:33 UTC.
Position N 48°53' E 002°15'.

Length 184 m; draft 7.5 m.

Type: Ship. MMSI: 226000000.

Date/timePositionNaut miles runAvg speedWind from/ knotsBaromVisibWave heightAir tempDewpointWater temp
2018-Feb-23 09:46N 48°53' E 002°15'0 0.8
2018-Feb-23 09:29N 48°53' E 002°15'3284125.3
2018-Feb-22 07:17N 40°19' W 073°41'310.1
2018-Feb-22 07:00N 40°22' W 073°43'510.0
2018-Feb-22 06:29N 40°25' W 073°48'4 8.9
2018-Feb-22 06:00N 40°28' W 073°52'510.5
2018-Feb-22 05:30N 40°31' W 073°58'611.8
2018-Feb-22 05:01N 40°36' W 074°02'4 7.5
2018-Feb-22 04:28N 40°39' W 074°05'0 0.1
2018-Feb-22 03:58N 40°39' W 074°05'0 0.0
2018-Feb-22 03:28N 40°39' W 074°05'0 0.0
2018-Feb-22 02:58N 40°39' W 074°05'0 0.0
2018-Feb-22 02:28N 40°39' W 074°05'0 0.0
2018-Feb-22 01:58N 40°39' W 074°05'0 0.0
2018-Feb-22 01:25N 40°39' W 074°05'0 0.0
2018-Feb-22 00:52N 40°39' W 074°05'0 0.0
2018-Feb-22 00:25N 40°39' W 074°05'0 0.0
2018-Feb-21 23:55N 40°39' W 074°05'0 0.0
2018-Feb-21 23:25N 40°39' W 074°05'0 0.0
2018-Feb-21 22:55N 40°39' W 074°05'0 0.0
2018-Feb-21 22:28N 40°39' W 074°05'0 0.0
2018-Feb-21 21:55N 40°39' W 074°05'0 0.0
2018-Feb-21 21:25N 40°39' W 074°05'0 0.0
2018-Feb-21 20:55N 40°39' W 074°05'0 0.0
2018-Feb-21 20:19N 40°39' W 074°05'0 0.0
2018-Feb-21 19:49N 40°39' W 074°05'0 0.0
2018-Feb-21 19:01N 40°39' W 074°05'0 0.0
2018-Feb-21 18:31N 40°39' W 074°05'0 0.0
2018-Feb-21 18:19N 40°39' W 074°05'0 0.0
2018-Feb-21 17:55N 40°39' W 074°05'0 0.0
2018-Feb-21 17:25N 40°39' W 074°05'0 0.0
2018-Feb-21 16:58N 40°39' W 074°05'0 0.0
2018-Feb-21 16:28N 40°39' W 074°05'0 0.0
2018-Feb-21 14:49N 40°39' W 074°05'0 0.0
2018-Feb-21 14:28N 40°39' W 074°05'0 0.0
2018-Feb-21 13:34N 40°39' W 074°05'0 0.0
2018-Feb-21 13:19N 40°39' W 074°05'0 0.0
2018-Feb-21 12:58N 40°39' W 074°05'0 0.0
2018-Feb-21 12:28N 40°39' W 074°05'0 0.0
2018-Feb-21 11:55N 40°39' W 074°05'0 0.0
2018-Feb-21 11:13N 40°39' W 074°05'0 0.0
2018-Feb-21 10:55N 40°39' W 074°05'0 0.0
2018-Feb-21 10:25N 40°39' W 074°05'0 0.0
2018-Feb-21 09:55N 40°39' W 074°05'0 0.0
2018-Feb-21 09:28N 40°39' W 074°05'0 0.0
2018-Feb-21 08:58N 40°39' W 074°05'0 0.0
2018-Feb-21 08:28N 40°39' W 074°05'0 0.0
2018-Feb-21 07:28N 40°39' W 074°05'0 0.0
2018-Feb-21 05:40N 40°39' W 074°05'0 0.0
2018-Feb-21 05:28N 40°39' W 074°05'0 0.0
2018-Feb-21 04:58N 40°39' W 074°05'0 0.0
2018-Feb-21 04:28N 40°39' W 074°05'0 0.0
2018-Feb-21 03:58N 40°39' W 074°05'0 0.0
2018-Feb-21 03:28N 40°39' W 074°05'0 0.0
2018-Feb-21 02:58N 40°39' W 074°05'0 0.0
2018-Feb-21 02:25N 40°39' W 074°05'0 0.0
2018-Feb-21 01:52N 40°39' W 074°05'0 0.0
2018-Feb-21 00:43N 40°39' W 074°05'0 0.0
2018-Feb-21 00:19N 40°39' W 074°05'0 0.0
2018-Feb-20 22:31N 40°39' W 074°05'0 0.0
2018-Feb-20 22:25N 40°39' W 074°05'0 0.0
2018-Feb-20 21:55N 40°39' W 074°05'0 0.0
2018-Feb-20 21:19N 40°39' W 074°05'0 0.0
2018-Feb-20 20:55N 40°39' W 074°05'0 0.0
2018-Feb-20 20:13N 40°39' W 074°05'0 0.0
2018-Feb-20 19:37N 40°39' W 074°05'0 0.0
2018-Feb-20 18:25N 40°39' W 074°05'0 0.0
2018-Feb-20 17:55N 40°39' W 074°05'0 0.0
2018-Feb-20 15:16N 40°39' W 074°05'32921375.1
2018-Feb-20 12:52N 48°57' E 002°20'5 7.4
2018-Feb-20 12:15N 48°53' E 002°15'32892552.7
2018-Feb-20 10:58N 40°39' W 074°05'0 0.1
2018-Feb-20 10:31N 40°39' W 074°05'1 2.7
2018-Feb-20 10:01N 40°39' W 074°04'2 3.3
2018-Feb-20 09:31N 40°37' W 074°03'2 4.3
2018-Feb-20 09:00N 40°35' W 074°02'3 6.7
2018-Feb-20 08:30N 40°32' W 074°01'4 7.8
2018-Feb-20 08:00N 40°30' W 073°57'4 8.0
2018-Feb-20 07:31N 40°28' W 073°52'4 7.5
2018-Feb-20 06:59N 40°26' W 073°47'3285177.6
2018-Feb-19 12:29N 48°53' E 002°15'32736400.9
2018-Feb-19 11:59N 40°29' W 073°34'0 0.0
2018-Feb-19 11:29N 40°29' W 073°34'0 0.0
2018-Feb-18 12:33N 40°29' W 073°34'1 3.6
2018-Feb-18 12:09N 40°29' W 073°32'327370.0
2018-Feb-16 13:25N 48°54' E 002°17'2 0.6
2018-Feb-16 09:38N 48°52' E 002°14'1 1.5
2018-Feb-16 09:14N 48°53' E 002°15'  
Track history (hours):
 
Tides and Currents Weather Stations Pressure Air Temp Water Temp Dewpoint Dewpoint Depression Visibility Wind Speed Wind Dir Waves Ship Positions

Asterion

Last reported at 2018-Feb-23 09:46 UTC. Time now 2018-Feb-24 16:33 UTC.
Position N 48°53' E 002°15'.

Length 184 m; draft 7.5 m.

Type: Ship. MMSI: 226000000.

Date/timePositionNaut miles runAvg speedWind from/ knotsBaromVisibWave heightAir tempDewpointWater temp
2018-Feb-23 09:46N 48°53' E 002°15'0 0.8
2018-Feb-23 09:29N 48°53' E 002°15'3284125.3
2018-Feb-22 07:17N 40°19' W 073°41'310.1
2018-Feb-22 07:00N 40°22' W 073°43'510.0
2018-Feb-22 06:29N 40°25' W 073°48'4 8.9
2018-Feb-22 06:00N 40°28' W 073°52'510.5
2018-Feb-22 05:30N 40°31' W 073°58'611.8
2018-Feb-22 05:01N 40°36' W 074°02'4 7.5
2018-Feb-22 04:28N 40°39' W 074°05'0 0.1
2018-Feb-22 03:58N 40°39' W 074°05'0 0.0
2018-Feb-22 03:28N 40°39' W 074°05'0 0.0
2018-Feb-22 02:58N 40°39' W 074°05'0 0.0
2018-Feb-22 02:28N 40°39' W 074°05'0 0.0
2018-Feb-22 01:58N 40°39' W 074°05'0 0.0
2018-Feb-22 01:25N 40°39' W 074°05'0 0.0
2018-Feb-22 00:52N 40°39' W 074°05'0 0.0
2018-Feb-22 00:25N 40°39' W 074°05'0 0.0
2018-Feb-21 23:55N 40°39' W 074°05'0 0.0
2018-Feb-21 23:25N 40°39' W 074°05'0 0.0
2018-Feb-21 22:55N 40°39' W 074°05'0 0.0
2018-Feb-21 22:28N 40°39' W 074°05'0 0.0
2018-Feb-21 21:55N 40°39' W 074°05'0 0.0
2018-Feb-21 21:25N 40°39' W 074°05'0 0.0
2018-Feb-21 20:55N 40°39' W 074°05'0 0.0
2018-Feb-21 20:19N 40°39' W 074°05'0 0.0
2018-Feb-21 19:49N 40°39' W 074°05'0 0.0
2018-Feb-21 19:01N 40°39' W 074°05'0 0.0
2018-Feb-21 18:31N 40°39' W 074°05'0 0.0
2018-Feb-21 18:19N 40°39' W 074°05'0 0.0
2018-Feb-21 17:55N 40°39' W 074°05'0 0.0
2018-Feb-21 17:25N 40°39' W 074°05'0 0.0
2018-Feb-21 16:58N 40°39' W 074°05'0 0.0
2018-Feb-21 16:28N 40°39' W 074°05'0 0.0
2018-Feb-21 14:49N 40°39' W 074°05'0 0.0
2018-Feb-21 14:28N 40°39' W 074°05'0 0.0
2018-Feb-21 13:34N 40°39' W 074°05'0 0.0
2018-Feb-21 13:19N 40°39' W 074°05'0 0.0
2018-Feb-21 12:58N 40°39' W 074°05'0 0.0
2018-Feb-21 12:28N 40°39' W 074°05'0 0.0
2018-Feb-21 11:55N 40°39' W 074°05'0 0.0
2018-Feb-21 11:13N 40°39' W 074°05'0 0.0
2018-Feb-21 10:55N 40°39' W 074°05'0 0.0
2018-Feb-21 10:25N 40°39' W 074°05'0 0.0
2018-Feb-21 09:55N 40°39' W 074°05'0 0.0
2018-Feb-21 09:28N 40°39' W 074°05'0 0.0
2018-Feb-21 08:58N 40°39' W 074°05'0 0.0
2018-Feb-21 08:28N 40°39' W 074°05'0 0.0
2018-Feb-21 07:28N 40°39' W 074°05'0 0.0
2018-Feb-21 05:40N 40°39' W 074°05'0 0.0
2018-Feb-21 05:28N 40°39' W 074°05'0 0.0
2018-Feb-21 04:58N 40°39' W 074°05'0 0.0
2018-Feb-21 04:28N 40°39' W 074°05'0 0.0
2018-Feb-21 03:58N 40°39' W 074°05'0 0.0
2018-Feb-21 03:28N 40°39' W 074°05'0 0.0
2018-Feb-21 02:58N 40°39' W 074°05'0 0.0
2018-Feb-21 02:25N 40°39' W 074°05'0 0.0
2018-Feb-21 01:52N 40°39' W 074°05'0 0.0
2018-Feb-21 00:43N 40°39' W 074°05'0 0.0
2018-Feb-21 00:19N 40°39' W 074°05'0 0.0
2018-Feb-20 22:31N 40°39' W 074°05'0 0.0
2018-Feb-20 22:25N 40°39' W 074°05'0 0.0
2018-Feb-20 21:55N 40°39' W 074°05'0 0.0
2018-Feb-20 21:19N 40°39' W 074°05'0 0.0
2018-Feb-20 20:55N 40°39' W 074°05'0 0.0
2018-Feb-20 20:13N 40°39' W 074°05'0 0.0
2018-Feb-20 19:37N 40°39' W 074°05'0 0.0
2018-Feb-20 18:25N 40°39' W 074°05'0 0.0
2018-Feb-20 17:55N 40°39' W 074°05'0 0.0
2018-Feb-20 15:16N 40°39' W 074°05'32921375.1
2018-Feb-20 12:52N 48°57' E 002°20'5 7.4
2018-Feb-20 12:15N 48°53' E 002°15'32892552.7
2018-Feb-20 10:58N 40°39' W 074°05'0 0.1
2018-Feb-20 10:31N 40°39' W 074°05'1 2.7
2018-Feb-20 10:01N 40°39' W 074°04'2 3.3
2018-Feb-20 09:31N 40°37' W 074°03'2 4.3
2018-Feb-20 09:00N 40°35' W 074°02'3 6.7
2018-Feb-20 08:30N 40°32' W 074°01'4 7.8
2018-Feb-20 08:00N 40°30' W 073°57'4 8.0
2018-Feb-20 07:31N 40°28' W 073°52'4 7.5
2018-Feb-20 06:59N 40°26' W 073°47'3285177.6
2018-Feb-19 12:29N 48°53' E 002°15'32736400.9
2018-Feb-19 11:59N 40°29' W 073°34'0 0.0
2018-Feb-19 11:29N 40°29' W 073°34'0 0.0
2018-Feb-18 12:33N 40°29' W 073°34'1 3.6
2018-Feb-18 12:09N 40°29' W 073°32'327370.0
2018-Feb-16 13:25N 48°54' E 002°17'2 0.6
2018-Feb-16 09:38N 48°52' E 002°14'1 1.5
2018-Feb-16 09:14N 48°53' E 002°15'  

Dump ship's entire track history